createdAt,value
2019-05-16T00:02:18.408Z,1.22
2019-05-16T00:04:48.206Z,1.55
2019-05-16T00:07:18.957Z,1.17
2019-05-16T00:09:48.242Z,1.30
2019-05-16T00:12:18.381Z,1.20
2019-05-16T00:14:48.798Z,1.25
2019-05-16T00:17:18.699Z,1.30
2019-05-16T00:19:48.281Z,0.90
2019-05-16T00:22:18.178Z,1.10
2019-05-16T00:24:48.609Z,1.20
2019-05-16T00:27:18.463Z,1.45
2019-05-16T00:29:48.625Z,1.12
2019-05-16T00:32:18.944Z,1.95
2019-05-16T00:34:47.777Z,0.90
2019-05-16T00:37:18.195Z,1.40
2019-05-16T00:39:48.116Z,1.30
2019-05-16T00:42:18.068Z,1.32
2019-05-16T00:44:47.884Z,1.27
2019-05-16T00:47:17.881Z,1.50
2019-05-16T00:49:47.996Z,1.67
2019-05-16T00:52:18.423Z,1.60
2019-05-16T00:54:48.507Z,1.80
2019-05-16T00:57:18.662Z,2.37
2019-05-16T00:59:48.559Z,2.15
2019-05-16T01:02:18.197Z,2.02
2019-05-16T01:04:48.580Z,1.72
2019-05-16T01:07:18.664Z,1.70
2019-05-16T01:09:48.825Z,1.30
2019-05-16T01:12:17.810Z,1.50
2019-05-16T01:14:47.830Z,1.32
2019-05-16T01:17:18.133Z,1.40
2019-05-16T01:19:48.321Z,1.70
2019-05-16T01:22:18.546Z,1.55
2019-05-16T01:24:46.245Z,1.47
2019-05-16T01:27:14.626Z,1.75
2019-05-16T01:29:43.049Z,2.37
2019-05-16T01:32:11.334Z,2.70
2019-05-16T01:34:39.694Z,2.00
2019-05-16T01:37:08.388Z,2.10
2019-05-16T01:39:38.205Z,2.10
2019-05-16T01:42:07.973Z,1.92
2019-05-16T01:44:38.188Z,1.67
2019-05-16T01:47:08.880Z,1.95
2019-05-16T01:49:38.133Z,1.52
2019-05-16T01:52:08.404Z,1.30
2019-05-16T01:54:38.664Z,1.60
2019-05-16T01:57:08.146Z,1.42
2019-05-16T01:59:38.043Z,1.55
2019-05-16T02:02:08.366Z,1.70
2019-05-16T02:04:37.960Z,1.70
2019-05-16T02:07:08.537Z,2.10
2019-05-16T02:09:38.462Z,2.10
2019-05-16T02:12:08.111Z,1.85
2019-05-16T02:14:38.802Z,1.77
2019-05-16T02:17:10.956Z,1.80
2019-05-16T02:19:38.511Z,1.20
2019-05-16T02:22:08.765Z,1.87
2019-05-16T02:24:38.866Z,1.60
2019-05-16T02:27:09.394Z,1.35
2019-05-16T02:29:37.035Z,1.32
2019-05-16T02:32:05.390Z,1.12
2019-05-16T02:34:33.821Z,1.37
2019-05-16T02:37:18.364Z,1.17
2019-05-16T02:39:32.290Z,1.30
2019-05-16T02:42:01.203Z,1.37
2019-05-16T02:44:31.961Z,1.55
2019-05-16T02:47:01.658Z,1.10
2019-05-16T02:49:30.772Z,1.80
2019-05-16T02:52:01.401Z,1.45
2019-05-16T02:54:31.598Z,2.20
2019-05-16T02:57:01.421Z,2.15
2019-05-16T02:59:30.784Z,2.25
2019-05-16T03:02:00.865Z,2.20
2019-05-16T03:04:30.661Z,1.90
2019-05-16T03:07:00.660Z,1.70
2019-05-16T03:09:30.469Z,2.35
2019-05-16T03:12:01.251Z,1.92
2019-05-16T03:14:31.524Z,2.17
2019-05-16T03:17:00.979Z,2.92
2019-05-16T03:19:31.125Z,2.08
2019-05-16T03:22:01.186Z,2.45
2019-05-16T03:24:31.038Z,1.60
2019-05-16T03:27:01.649Z,1.72
2019-05-16T03:29:30.893Z,1.52
2019-05-16T03:32:03.136Z,1.70
2019-05-16T03:34:34.307Z,1.60
2019-05-16T03:37:04.425Z,1.40
2019-05-16T03:39:31.375Z,1.72
2019-05-16T03:42:01.035Z,1.60
2019-05-16T03:44:31.757Z,1.65
2019-05-16T03:47:01.057Z,1.70
2019-05-16T03:49:31.209Z,1.87
2019-05-16T03:52:01.595Z,1.80
2019-05-16T03:54:31.534Z,1.98
2019-05-16T03:57:00.529Z,1.57
2019-05-16T03:59:31.453Z,1.67
2019-05-16T04:02:01.557Z,1.80
2019-05-16T04:04:30.852Z,2.58
2019-05-16T04:07:01.497Z,1.60
2019-05-16T04:09:31.477Z,1.50
2019-05-16T04:12:01.873Z,1.57
2019-05-16T04:14:30.965Z,2.00
2019-05-16T04:17:01.623Z,3.08
2019-05-16T04:19:31.395Z,2.22
2019-05-16T04:22:01.368Z,1.72
2019-05-16T04:24:31.649Z,1.32
2019-05-16T04:27:00.995Z,3.30
2019-05-16T04:29:31.705Z,1.95
2019-05-16T04:32:01.457Z,1.25
2019-05-16T04:34:31.073Z,0.90
2019-05-16T04:37:01.196Z,0.95
2019-05-16T04:39:31.975Z,0.93
2019-05-16T04:42:01.583Z,0.80
2019-05-16T04:44:30.944Z,0.85
2019-05-16T04:47:01.410Z,1.45
2019-05-16T04:49:32.012Z,2.42
2019-05-16T04:52:00.573Z,1.30
2019-05-16T04:54:30.743Z,1.12
2019-05-16T04:57:01.535Z,0.70
2019-05-16T04:59:31.164Z,0.60
2019-05-16T05:02:01.957Z,0.98
2019-05-16T05:04:30.571Z,2.25
2019-05-16T05:07:00.502Z,0.95
2019-05-16T05:09:31.615Z,0.93
2019-05-16T05:12:04.155Z,1.22
2019-05-16T05:14:30.775Z,0.70
2019-05-16T05:17:01.440Z,0.90
2019-05-16T05:19:30.671Z,0.68
2019-05-16T05:22:01.324Z,0.85
2019-05-16T05:24:30.280Z,0.72
2019-05-16T05:26:59.849Z,0.70
2019-05-16T05:29:30.556Z,0.80
2019-05-16T05:32:03.569Z,0.70
2019-05-16T05:34:30.361Z,0.65
2019-05-16T05:37:00.315Z,1.05
2019-05-16T05:39:30.148Z,0.85
2019-05-16T05:42:00.039Z,1.85
2019-05-16T05:44:30.561Z,0.93
2019-05-16T05:47:00.529Z,1.47
2019-05-16T05:49:30.165Z,0.98
2019-05-16T05:52:00.791Z,0.90
2019-05-16T05:54:30.683Z,0.70
2019-05-16T05:57:00.511Z,0.65
2019-05-16T05:59:30.608Z,0.88
2019-05-16T06:02:00.800Z,0.60
2019-05-16T06:04:30.489Z,0.80
2019-05-16T06:07:01.218Z,0.80
2019-05-16T06:09:32.698Z,0.75
2019-05-16T06:12:00.764Z,0.78
2019-05-16T06:14:30.651Z,0.80
2019-05-16T06:17:00.413Z,1.20
2019-05-16T06:19:29.793Z,0.57
2019-05-16T06:22:00.855Z,3.10
2019-05-16T06:24:30.443Z,0.80
2019-05-16T06:27:00.777Z,0.82
2019-05-16T06:29:30.798Z,0.68
2019-05-16T06:32:00.228Z,0.70
2019-05-16T06:34:30.187Z,0.80
2019-05-16T06:37:00.461Z,1.00
2019-05-16T06:39:41.615Z,0.80
2019-05-16T06:42:00.503Z,1.15
2019-05-16T06:44:30.669Z,1.15
2019-05-16T06:47:14.978Z,0.70
2019-05-16T06:49:30.395Z,0.70
2019-05-16T06:51:59.703Z,0.80
2019-05-16T06:54:29.889Z,0.80
2019-05-16T06:57:00.145Z,1.12
2019-05-16T06:59:29.759Z,1.02
2019-05-16T07:02:00.269Z,0.75
2019-05-16T07:04:30.321Z,0.70
2019-05-16T07:07:00.018Z,0.80
2019-05-16T07:09:30.016Z,0.80
2019-05-16T07:11:59.908Z,0.72
2019-05-16T07:14:28.969Z,0.80
2019-05-16T07:17:00.201Z,0.78
2019-05-16T07:19:30.011Z,1.30
2019-05-16T07:21:59.836Z,1.30
2019-05-16T07:24:30.389Z,1.37
2019-05-16T07:27:00.199Z,1.80
2019-05-16T07:29:27.807Z,1.17
2019-05-16T07:31:56.187Z,0.90
2019-05-16T07:34:24.509Z,0.93
2019-05-16T07:36:52.737Z,1.25
2019-05-16T07:39:21.041Z,1.10
2019-05-16T07:41:50.814Z,0.90
2019-05-16T07:44:20.828Z,1.37
2019-05-16T07:46:51.601Z,1.05
2019-05-16T07:49:19.789Z,0.65
2019-05-16T07:51:49.866Z,0.70
2019-05-16T07:54:17.961Z,0.68
2019-05-16T07:56:46.290Z,0.60
2019-05-16T07:59:14.537Z,0.60
2019-05-16T08:01:43.416Z,1.62
2019-05-16T08:04:11.922Z,0.80
2019-05-16T08:06:41.516Z,1.32
2019-05-16T08:09:12.456Z,0.80
2019-05-16T08:11:40.805Z,0.60
2019-05-16T08:14:10.196Z,0.70
2019-05-16T08:16:40.757Z,1.12
2019-05-16T08:19:10.292Z,0.70
2019-05-16T08:21:40.849Z,0.80
2019-05-16T08:24:14.561Z,0.50
2019-05-16T08:26:42.488Z,1.05
2019-05-16T08:29:08.676Z,0.78
2019-05-16T08:31:36.872Z,1.07
2019-05-16T08:34:05.308Z,1.05
2019-05-16T08:36:33.595Z,0.80
2019-05-16T08:39:02.009Z,1.70
2019-05-16T08:44:01.235Z,1.05
2019-05-16T08:49:01.188Z,0.60
2019-05-16T08:50:09.848Z,0.90
2019-05-16T08:51:33.411Z,0.85
2019-05-16T08:54:01.589Z,1.00
2019-05-16T08:56:31.687Z,0.80
2019-05-16T08:59:02.692Z,0.60
2019-05-16T09:01:34.960Z,0.80
2019-05-16T09:04:01.513Z,0.75
2019-05-16T09:06:31.981Z,0.95
2019-05-16T09:09:10.221Z,0.68
2019-05-16T09:10:11.187Z,0.85
2019-05-16T09:11:40.498Z,0.80
2019-05-16T09:13:59.517Z,0.68
2019-05-16T09:16:27.742Z,0.78
2019-05-16T09:18:57.602Z,0.90
2019-05-16T09:21:27.486Z,0.90
2019-05-16T09:23:57.843Z,0.80
2019-05-16T09:26:27.651Z,0.60
2019-05-16T09:28:57.047Z,0.80
2019-05-16T09:31:30.316Z,0.85
2019-05-16T09:33:56.773Z,0.90
2019-05-16T09:36:27.756Z,1.05
2019-05-16T09:38:57.664Z,0.72
2019-05-16T09:41:28.768Z,1.17
2019-05-16T09:43:58.893Z,1.00
2019-05-16T09:46:27.660Z,0.80
2019-05-16T09:49:13.028Z,0.90
2019-05-16T09:51:27.109Z,0.65
2019-05-16T09:53:56.697Z,0.70
2019-05-16T09:56:26.996Z,0.78
2019-05-16T09:58:57.327Z,0.80
2019-05-16T10:01:27.425Z,1.20
2019-05-16T10:03:55.094Z,0.82
2019-05-16T10:06:23.487Z,1.32
2019-05-16T10:08:51.795Z,1.22
2019-05-16T10:11:20.174Z,0.70
2019-05-16T10:13:48.513Z,0.80
2019-05-16T10:16:16.904Z,0.95
2019-05-16T10:18:47.383Z,0.80
2019-05-16T10:21:17.920Z,0.75
2019-05-16T10:23:46.970Z,0.72
2019-05-16T10:26:17.255Z,0.85
2019-05-16T10:28:46.811Z,0.80
2019-05-16T10:31:17.589Z,0.80
2019-05-16T10:33:47.766Z,1.40
2019-05-16T10:36:17.357Z,1.42
2019-05-16T10:38:48.107Z,0.75
2019-05-16T10:41:14.850Z,0.90
2019-05-16T10:43:43.137Z,1.10
2019-05-16T10:46:11.442Z,0.90
2019-05-16T10:48:39.739Z,1.05
2019-05-16T10:51:08.151Z,1.20
2019-05-16T10:54:01.086Z,1.57
2019-05-16T10:56:07.756Z,0.80
2019-05-16T10:58:43.894Z,0.62
2019-05-16T11:01:19.412Z,1.17
2019-05-16T11:03:36.250Z,0.70
2019-05-16T11:06:06.747Z,1.25
2019-05-16T11:08:37.158Z,0.88
2019-05-16T11:11:06.747Z,0.88
2019-05-16T11:13:36.910Z,0.80
2019-05-16T11:16:07.013Z,0.95
2019-05-16T11:18:37.478Z,0.72
2019-05-16T11:21:04.661Z,0.93
2019-05-16T11:23:33.201Z,0.88
2019-05-16T11:26:01.499Z,0.80
2019-05-16T11:28:29.749Z,0.70
2019-05-16T11:31:03.114Z,0.90
2019-05-16T11:33:28.428Z,0.90
2019-05-16T11:35:56.810Z,0.65
2019-05-16T11:38:25.187Z,0.70
2019-05-16T11:40:53.538Z,0.80
2019-05-16T11:43:22.100Z,1.02
2019-05-16T11:45:50.429Z,1.20
2019-05-16T11:48:18.844Z,0.82
2019-05-16T11:50:48.018Z,0.78
2019-05-16T11:53:17.515Z,0.75
2019-05-16T11:55:54.387Z,0.70
2019-05-16T11:58:18.015Z,0.95
2019-05-16T12:00:48.154Z,0.80
2019-05-16T12:03:17.096Z,0.75
2019-05-16T12:05:47.981Z,0.60
2019-05-16T12:08:17.440Z,0.88
2019-05-16T12:10:47.225Z,1.20
2019-05-16T12:13:27.244Z,0.80
2019-05-16T12:15:45.397Z,0.80
2019-05-16T12:18:13.854Z,1.50
2019-05-16T12:20:42.161Z,1.40
2019-05-16T12:23:10.526Z,1.00
2019-05-16T12:25:38.845Z,0.82
2019-05-16T12:28:08.192Z,1.00
2019-05-16T12:30:40.135Z,0.70
2019-05-16T12:33:07.309Z,1.00
2019-05-16T12:35:36.952Z,0.78
2019-05-16T12:38:08.026Z,0.88
2019-05-16T12:40:37.582Z,0.78
2019-05-16T12:43:07.831Z,0.88
2019-05-16T12:45:38.427Z,1.12
2019-05-16T12:48:06.877Z,0.75
2019-05-16T12:50:38.344Z,0.65
2019-05-16T12:53:07.946Z,1.30
2019-05-16T12:55:36.859Z,0.98
2019-05-16T12:58:12.806Z,0.82
2019-05-16T13:00:37.069Z,1.20
2019-05-16T13:03:07.155Z,1.10
2019-05-16T13:05:37.399Z,1.37
2019-05-16T13:08:05.305Z,1.05
2019-05-16T13:10:33.678Z,0.98
2019-05-16T13:13:01.953Z,0.80
2019-05-16T13:15:30.297Z,0.65
2019-05-16T13:17:58.525Z,0.80
2019-05-16T13:20:26.904Z,1.00
2019-05-16T13:22:56.776Z,0.93
2019-05-16T13:25:27.293Z,0.90
2019-05-16T13:27:57.674Z,0.90
2019-05-16T13:30:26.871Z,1.02
2019-05-16T13:32:56.571Z,0.98
2019-05-16T13:35:27.115Z,0.85
2019-05-16T13:37:54.773Z,1.00
2019-05-16T13:40:23.175Z,0.70
2019-05-16T13:42:51.489Z,0.70
2019-05-16T13:45:19.794Z,0.93
2019-05-16T13:47:49.177Z,0.70
2019-05-16T13:50:17.594Z,0.80
2019-05-16T13:52:47.974Z,0.70
2019-05-16T13:55:16.825Z,0.68
2019-05-16T13:57:45.357Z,0.88
2019-05-16T14:00:13.755Z,1.07
2019-05-16T14:02:42.136Z,0.98
2019-05-16T14:05:10.813Z,0.65
2019-05-16T14:07:39.046Z,1.07
2019-05-16T14:10:08.249Z,1.65
2019-05-16T14:12:36.781Z,1.80
2019-05-16T14:15:07.921Z,1.12
2019-05-16T14:17:37.176Z,0.85
2019-05-16T14:20:13.922Z,1.10
2019-05-16T14:22:36.889Z,0.90
2019-05-16T14:25:08.051Z,0.90
2019-05-16T14:27:38.219Z,0.85
2019-05-16T14:30:09.564Z,1.15
2019-05-16T14:32:42.035Z,1.20
2019-05-16T14:35:08.800Z,1.00
2019-05-16T14:37:40.214Z,0.95
2019-05-16T14:40:08.726Z,0.98
2019-05-16T14:42:38.867Z,0.95
2019-05-16T14:45:12.060Z,1.00
2019-05-16T14:47:38.081Z,1.82
2019-05-16T14:50:12.884Z,1.07
2019-05-16T14:52:36.833Z,1.27
2019-05-16T14:55:07.298Z,1.10
2019-05-16T14:57:36.859Z,1.30
2019-05-16T15:00:07.458Z,1.15
2019-05-16T15:02:38.192Z,1.40
2019-05-16T15:05:07.820Z,1.35
2019-05-16T15:07:37.495Z,1.07
2019-05-16T15:10:07.387Z,1.10
2019-05-16T15:12:37.600Z,1.00
2019-05-16T15:15:17.089Z,1.32
2019-05-16T15:17:36.720Z,1.22
2019-05-16T15:20:06.763Z,1.17
2019-05-16T15:22:38.022Z,1.30
2019-05-16T15:25:08.120Z,1.30
2019-05-16T15:27:37.163Z,0.98
2019-05-16T15:30:07.229Z,1.10
2019-05-16T15:32:38.599Z,0.80
2019-05-16T15:35:07.441Z,0.80
2019-05-16T15:37:37.344Z,0.98
2019-05-16T15:40:08.352Z,0.78
2019-05-16T15:42:37.390Z,1.02
2019-05-16T15:45:07.380Z,1.10
2019-05-16T15:47:37.571Z,1.10
2019-05-16T15:50:07.959Z,1.42
2019-05-16T15:52:38.128Z,1.40
2019-05-16T15:55:10.192Z,1.17
2019-05-16T15:57:37.801Z,1.00
2019-05-16T16:00:10.731Z,1.02
2019-05-16T16:02:37.652Z,1.07
2019-05-16T16:05:07.459Z,1.12
2019-05-16T16:07:38.081Z,1.02
2019-05-16T16:10:07.015Z,1.65
2019-05-16T16:12:37.496Z,1.42
2019-05-16T16:15:07.607Z,1.30
2019-05-16T16:17:38.089Z,1.30
2019-05-16T16:20:10.537Z,1.15
2019-05-16T16:22:37.751Z,1.10
2019-05-16T16:25:07.006Z,1.30
2019-05-16T16:27:35.509Z,1.60
2019-05-16T16:30:06.865Z,1.40
2019-05-16T16:32:38.086Z,1.90
2019-05-16T16:35:07.858Z,1.05
2019-05-16T16:37:37.685Z,1.27
2019-05-16T16:40:10.836Z,1.05
2019-05-16T16:42:37.396Z,1.10
2019-05-16T16:45:08.677Z,1.10
2019-05-16T16:47:37.883Z,1.27
2019-05-16T16:50:07.818Z,1.00
2019-05-16T16:52:38.016Z,1.35
2019-05-16T16:55:07.449Z,1.85
2019-05-16T16:57:38.332Z,0.98
2019-05-16T17:00:07.809Z,1.32
2019-05-16T17:02:37.404Z,1.15
2019-05-16T17:05:11.408Z,1.17
2019-05-16T17:07:37.227Z,1.00
2019-05-16T17:10:07.026Z,1.40
2019-05-16T17:12:41.350Z,1.30
2019-05-16T17:15:09.203Z,1.55
2019-05-16T17:17:37.677Z,1.35
2019-05-16T17:20:07.648Z,1.62
2019-05-16T17:22:37.391Z,1.17
2019-05-16T17:25:07.147Z,1.60
2019-05-16T17:27:37.605Z,1.47
2019-05-16T17:30:07.347Z,1.12
2019-05-16T17:32:35.577Z,1.40
2019-05-16T17:35:03.879Z,1.77
2019-05-16T17:37:32.150Z,1.22
2019-05-16T17:40:00.481Z,1.27
2019-05-16T17:42:28.857Z,1.10
2019-05-16T17:44:57.170Z,1.20
2019-05-16T17:47:26.327Z,1.20
2019-05-16T17:49:54.733Z,1.35
2019-05-16T17:52:23.037Z,1.77
2019-05-16T17:54:53.242Z,1.98
2019-05-16T17:57:21.418Z,2.02
2019-05-16T17:59:49.718Z,1.87
2019-05-16T18:02:18.065Z,2.27
2019-05-16T18:04:47.103Z,2.83
2019-05-16T18:07:15.501Z,2.40
2019-05-16T18:09:43.805Z,2.42
2019-05-16T18:12:12.118Z,2.80
2019-05-16T18:14:40.386Z,3.37
2019-05-16T18:17:08.678Z,3.08
2019-05-16T18:19:37.357Z,2.67
2019-05-16T18:22:06.714Z,2.45
2019-05-16T18:24:36.968Z,2.58
2019-05-16T18:27:06.662Z,2.25
2019-05-16T18:29:36.516Z,2.52
2019-05-16T18:32:06.804Z,2.85
2019-05-16T18:34:37.448Z,2.02
2019-05-16T18:37:06.865Z,2.08
2019-05-16T18:39:36.818Z,1.87
2019-05-16T18:42:04.753Z,2.80
2019-05-16T18:44:32.997Z,2.80
2019-05-16T18:47:07.340Z,2.47
2019-05-16T18:49:31.317Z,2.10
2019-05-16T18:52:00.427Z,2.67
2019-05-16T18:54:28.734Z,2.40
2019-05-16T18:56:57.803Z,2.00
2019-05-16T18:59:26.281Z,2.08
2019-05-16T19:01:54.607Z,1.60
2019-05-16T19:04:26.889Z,2.25
2019-05-16T19:06:56.603Z,2.10
2019-05-16T19:09:26.769Z,2.30
2019-05-16T19:11:56.569Z,2.62
2019-05-16T19:14:24.641Z,2.65
2019-05-16T19:16:53.010Z,1.92
2019-05-16T19:19:21.313Z,2.42
2019-05-16T19:21:49.690Z,2.35
2019-05-16T19:24:18.089Z,2.00
2019-05-16T19:26:46.930Z,1.92
2019-05-16T19:29:17.390Z,2.12
2019-05-16T19:31:46.964Z,2.37
2019-05-16T19:34:16.335Z,2.98
2019-05-16T19:36:46.583Z,2.70
2019-05-16T19:39:14.614Z,2.27
2019-05-16T19:41:42.857Z,2.10
2019-05-16T19:44:11.168Z,1.98
2019-05-16T19:46:39.392Z,1.77
2019-05-16T19:49:08.031Z,2.37
2019-05-16T19:51:36.426Z,2.05
2019-05-16T19:54:07.001Z,1.72
2019-05-16T19:56:34.682Z,1.62
2019-05-16T19:59:03.049Z,1.87
2019-05-16T20:01:31.394Z,2.10
2019-05-16T20:03:59.623Z,1.82
2019-05-16T20:06:27.873Z,1.70
2019-05-16T20:08:56.166Z,1.57
2019-05-16T20:11:24.537Z,1.50
2019-05-16T20:13:52.847Z,1.80
2019-05-16T20:16:21.226Z,1.65
2019-05-16T20:18:49.537Z,1.82
2019-05-16T20:21:18.571Z,2.00
2019-05-16T20:23:47.353Z,2.50
2019-05-16T20:26:16.889Z,2.30
2019-05-16T20:28:47.322Z,2.58
2019-05-16T20:31:17.092Z,2.50
2019-05-16T20:33:46.892Z,2.90
2019-05-16T20:36:17.315Z,2.87
2019-05-16T20:38:46.596Z,2.33
2019-05-16T20:41:17.119Z,2.55
2019-05-16T20:43:47.343Z,2.30
2019-05-16T20:46:16.859Z,2.62
2019-05-16T20:48:44.977Z,2.02
2019-05-16T20:51:13.338Z,2.00
2019-05-16T20:53:41.723Z,2.10
2019-05-16T20:56:10.129Z,2.90
2019-05-16T20:58:38.434Z,1.90
2019-05-16T21:01:07.148Z,2.22
2019-05-16T21:03:37.630Z,3.65
2019-05-16T21:06:08.407Z,3.37
2019-05-16T21:08:37.108Z,2.60
2019-05-16T21:11:06.532Z,3.40
2019-05-16T21:13:35.045Z,3.30
2019-05-16T21:16:03.442Z,3.15
2019-05-16T21:18:31.757Z,2.95
2019-05-16T21:21:00.059Z,3.00
2019-05-16T21:23:28.365Z,2.85
2019-05-16T21:25:57.123Z,2.65
2019-05-16T21:28:26.313Z,2.98
2019-05-16T21:30:56.708Z,3.15
2019-05-16T21:33:27.033Z,3.27
2019-05-16T21:35:56.367Z,3.47
2019-05-16T21:38:24.365Z,3.33
2019-05-16T21:40:53.371Z,2.80
2019-05-16T21:43:21.780Z,3.22
2019-05-16T21:45:50.079Z,2.30
2019-05-16T21:48:19.448Z,2.50
2019-05-16T21:50:47.943Z,3.20
2019-05-16T21:53:17.743Z,2.60
2019-05-16T21:55:47.221Z,3.60
2019-05-16T21:58:15.635Z,3.52
2019-05-16T22:00:47.454Z,4.12
2019-05-16T22:03:15.326Z,3.80
2019-05-16T22:05:43.707Z,4.10
2019-05-16T22:08:12.069Z,3.70
2019-05-16T22:10:40.388Z,3.50
2019-05-16T22:13:08.794Z,3.77
2019-05-16T22:15:37.085Z,5.40
2019-05-16T22:18:07.247Z,5.78
2019-05-16T22:20:35.481Z,4.55
2019-05-16T22:23:03.892Z,5.60
2019-05-16T22:25:32.193Z,3.50
2019-05-16T22:28:00.417Z,3.45
2019-05-16T22:30:28.885Z,4.05
2019-05-16T22:32:57.170Z,3.15
2019-05-16T22:35:27.418Z,3.77
2019-05-16T22:37:59.082Z,4.08
2019-05-16T22:40:26.708Z,4.22
2019-05-16T22:42:57.377Z,4.85
2019-05-16T22:45:27.063Z,3.22
2019-05-16T22:47:55.117Z,1.77
2019-05-16T22:50:23.432Z,1.90
2019-05-16T22:52:51.725Z,1.60
2019-05-16T22:55:20.103Z,2.08
2019-05-16T22:57:48.433Z,1.82
2019-05-16T23:00:22.058Z,2.22
2019-05-16T23:02:50.290Z,1.98
2019-05-16T23:05:18.597Z,2.42
2019-05-16T23:07:48.497Z,2.02
2019-05-16T23:10:17.017Z,2.37
2019-05-16T23:12:45.397Z,2.55
2019-05-16T23:15:14.176Z,2.40
2019-05-16T23:17:42.469Z,2.45
2019-05-16T23:20:11.077Z,2.70
2019-05-16T23:22:39.390Z,2.58
2019-05-16T23:25:07.758Z,2.98
2019-05-16T23:27:36.792Z,2.27
2019-05-16T23:30:07.383Z,2.95
2019-05-16T23:32:36.506Z,2.52
2019-05-16T23:35:08.037Z,1.92
2019-05-16T23:37:36.959Z,1.72
2019-05-16T23:40:06.625Z,1.82
2019-05-16T23:42:36.877Z,1.30
2019-05-16T23:45:08.744Z,1.62
2019-05-16T23:47:36.687Z,1.50
2019-05-16T23:50:07.935Z,1.75
2019-05-16T23:52:36.956Z,1.45
2019-05-16T23:55:08.341Z,1.80
2019-05-16T23:57:37.375Z,2.05
